Terminal Aerodrome Forecast
Issued by NWS

Home | Current Version | Previous Version | Text Only | Print | Product List | Glossary On
Versions: 1 2 3 4 5 6 7 8 9 10 11 12 13 14 15 16 17
000
FTUS46 KEKA 300243 AAA
TAFUKI
TAF AMD
KUKI 300243Z 3003/3024 35007KT P6SM SCT150 SCT250
     FM300600 VRB04KT P6SM FEW020 SCT250
     FM301900 33010G15KT P6SM SCT200=

USA.gov is the U.S. government's official web portal to all federal, state and local government web resources and services.